sensor_id;sensor_type;location;lat;lon;timestamp;P1;durP1;ratioP1;P2;durP2;ratioP2
29916;SDS011;16786;49.466;11.068;2022-12-13T00:01:46;50.28;;;24.75;;
29916;SDS011;16786;49.466;11.068;2022-12-13T00:04:16;51.53;;;24.27;;
29916;SDS011;16786;49.466;11.068;2022-12-13T00:06:44;48.15;;;23.20;;
29916;SDS011;16786;49.466;11.068;2022-12-13T00:09:12;47.20;;;23.05;;
29916;SDS011;16786;49.466;11.068;2022-12-13T00:11:41;48.67;;;23.65;;
29916;SDS011;16786;49.466;11.068;2022-12-13T00:14:09;51.75;;;23.25;;
29916;SDS011;16786;49.466;11.068;2022-12-13T00:16:39;47.70;;;23.25;;
29916;SDS011;16786;49.466;11.068;2022-12-13T00:19:11;43.25;;;21.83;;
29916;SDS011;16786;49.466;11.068;2022-12-13T00:21:38;47.20;;;22.20;;
29916;SDS011;16786;49.466;11.068;2022-12-13T00:24:06;43.00;;;22.48;;
29916;SDS011;16786;49.466;11.068;2022-12-13T00:26:34;42.42;;;23.02;;
29916;SDS011;16786;49.466;11.068;2022-12-13T00:29:02;42.45;;;21.33;;
29916;SDS011;16786;49.466;11.068;2022-12-13T00:31:31;45.97;;;21.60;;
29916;SDS011;16786;49.466;11.068;2022-12-13T00:34:19;49.10;;;21.85;;
29916;SDS011;16786;49.466;11.068;2022-12-13T00:36:47;46.08;;;22.02;;
29916;SDS011;16786;49.466;11.068;2022-12-13T00:39:15;43.45;;;21.10;;
29916;SDS011;16786;49.466;11.068;2022-12-13T00:41:45;42.22;;;21.10;;
29916;SDS011;16786;49.466;11.068;2022-12-13T00:44:12;42.05;;;20.83;;
29916;SDS011;16786;49.466;11.068;2022-12-13T00:46:40;42.53;;;20.58;;
29916;SDS011;16786;49.466;11.068;2022-12-13T00:49:08;36.58;;;19.23;;
29916;SDS011;16786;49.466;11.068;2022-12-13T00:51:37;39.78;;;19.52;;
29916;SDS011;16786;49.466;11.068;2022-12-13T00:54:04;41.90;;;20.00;;
29916;SDS011;16786;49.466;11.068;2022-12-13T00:56:32;43.80;;;19.38;;
29916;SDS011;16786;49.466;11.068;2022-12-13T00:58:59;42.42;;;19.60;;
29916;SDS011;16786;49.466;11.068;2022-12-13T01:01:28;43.15;;;19.67;;
29916;SDS011;16786;49.466;11.068;2022-12-13T01:04:00;30.75;;;15.60;;
29916;SDS011;16786;49.466;11.068;2022-12-13T01:06:30;36.43;;;16.37;;
29916;SDS011;16786;49.466;11.068;2022-12-13T01:09:03;44.28;;;19.80;;
29916;SDS011;16786;49.466;11.068;2022-12-13T01:11:31;38.40;;;19.52;;
29916;SDS011;16786;49.466;11.068;2022-12-13T01:13:59;42.65;;;19.02;;
29916;SDS011;16786;49.466;11.068;2022-12-13T01:16:26;40.40;;;19.23;;
29916;SDS011;16786;49.466;11.068;2022-12-13T01:18:55;41.17;;;19.48;;
29916;SDS011;16786;49.466;11.068;2022-12-13T01:21:23;41.78;;;20.60;;
29916;SDS011;16786;49.466;11.068;2022-12-13T01:23:50;43.05;;;20.35;;
29916;SDS011;16786;49.466;11.068;2022-12-13T01:26:19;48.35;;;21.02;;
29916;SDS011;16786;49.466;11.068;2022-12-13T01:28:47;39.70;;;20.23;;
29916;SDS011;16786;49.466;11.068;2022-12-13T01:31:16;42.03;;;20.23;;
29916;SDS011;16786;49.466;11.068;2022-12-13T01:33:45;41.08;;;20.83;;
29916;SDS011;16786;49.466;11.068;2022-12-13T01:36:15;39.28;;;20.63;;
29916;SDS011;16786;49.466;11.068;2022-12-13T01:38:44;42.15;;;20.40;;
29916;SDS011;16786;49.466;11.068;2022-12-13T01:41:16;45.45;;;20.55;;
29916;SDS011;16786;49.466;11.068;2022-12-13T01:46:13;41.33;;;19.85;;
29916;SDS011;16786;49.466;11.068;2022-12-13T01:48:46;43.30;;;19.42;;
29916;SDS011;16786;49.466;11.068;2022-12-13T01:51:51;41.25;;;19.40;;
29916;SDS011;16786;49.466;11.068;2022-12-13T01:54:27;39.95;;;17.95;;
29916;SDS011;16786;49.466;11.068;2022-12-13T01:57:00;43.58;;;19.20;;
29916;SDS011;16786;49.466;11.068;2022-12-13T01:59:32;42.33;;;19.65;;
29916;SDS011;16786;49.466;11.068;2022-12-13T02:02:01;45.35;;;20.42;;
29916;SDS011;16786;49.466;11.068;2022-12-13T02:04:36;36.75;;;17.83;;
29916;SDS011;16786;49.466;11.068;2022-12-13T02:07:14;40.03;;;18.05;;
29916;SDS011;16786;49.466;11.068;2022-12-13T02:09:50;42.33;;;19.60;;
29916;SDS011;16786;49.466;11.068;2022-12-13T02:12:27;36.92;;;18.00;;
29916;SDS011;16786;49.466;11.068;2022-12-13T02:14:58;38.08;;;18.30;;
29916;SDS011;16786;49.466;11.068;2022-12-13T02:20:28;39.35;;;17.58;;
29916;SDS011;16786;49.466;11.068;2022-12-13T02:34:12;35.67;;;16.70;;
29916;SDS011;16786;49.466;11.068;2022-12-13T02:39:48;32.40;;;17.35;;
29916;SDS011;16786;49.466;11.068;2022-12-13T02:42:24;34.28;;;16.75;;
29916;SDS011;16786;49.466;11.068;2022-12-13T02:44:57;38.58;;;16.75;;
29916;SDS011;16786;49.466;11.068;2022-12-13T02:47:46;35.15;;;15.68;;
29916;SDS011;16786;49.466;11.068;2022-12-13T02:50:18;35.03;;;17.10;;
29916;SDS011;16786;49.466;11.068;2022-12-13T02:52:46;34.20;;;16.17;;
29916;SDS011;16786;49.466;11.068;2022-12-13T02:55:14;35.88;;;16.48;;
29916;SDS011;16786;49.466;11.068;2022-12-13T02:57:43;36.45;;;17.20;;
29916;SDS011;16786;49.466;11.068;2022-12-13T03:00:15;33.90;;;16.50;;
29916;SDS011;16786;49.466;11.068;2022-12-13T03:08:38;37.72;;;17.42;;
29916;SDS011;16786;49.466;11.068;2022-12-13T03:11:13;35.08;;;16.73;;
29916;SDS011;16786;49.466;11.068;2022-12-13T03:16:32;41.22;;;17.67;;
29916;SDS011;16786;49.466;11.068;2022-12-13T03:19:07;36.28;;;17.40;;
29916;SDS011;16786;49.466;11.068;2022-12-13T03:21:40;35.17;;;15.52;;
29916;SDS011;16786;49.466;11.068;2022-12-13T03:24:17;33.80;;;16.38;;
29916;SDS011;16786;49.466;11.068;2022-12-13T03:26:47;31.15;;;15.48;;
29916;SDS011;16786;49.466;11.068;2022-12-13T03:29:16;30.55;;;15.40;;
29916;SDS011;16786;49.466;11.068;2022-12-13T03:31:50;40.90;;;17.27;;
29916;SDS011;16786;49.466;11.068;2022-12-13T03:34:18;36.35;;;16.25;;
29916;SDS011;16786;49.466;11.068;2022-12-13T03:36:50;32.90;;;15.47;;
29916;SDS011;16786;49.466;11.068;2022-12-13T03:39:17;31.85;;;16.42;;
29916;SDS011;16786;49.466;11.068;2022-12-13T03:41:45;37.17;;;17.33;;
29916;SDS011;16786;49.466;11.068;2022-12-13T03:44:13;36.45;;;16.02;;
29916;SDS011;16786;49.466;11.068;2022-12-13T03:46:40;34.38;;;16.15;;
29916;SDS011;16786;49.466;11.068;2022-12-13T03:49:08;34.13;;;16.95;;
29916;SDS011;16786;49.466;11.068;2022-12-13T03:51:42;32.13;;;17.30;;
29916;SDS011;16786;49.466;11.068;2022-12-13T03:54:09;34.60;;;16.55;;
29916;SDS011;16786;49.466;11.068;2022-12-13T03:56:37;34.40;;;15.10;;
29916;SDS011;16786;49.466;11.068;2022-12-13T03:59:04;36.65;;;18.50;;
29916;SDS011;16786;49.466;11.068;2022-12-13T04:01:31;36.83;;;16.50;;
29916;SDS011;16786;49.466;11.068;2022-12-13T04:03:59;35.42;;;16.70;;
29916;SDS011;16786;49.466;11.068;2022-12-13T04:06:26;37.70;;;16.63;;
29916;SDS011;16786;49.466;11.068;2022-12-13T04:08:59;29.85;;;14.70;;
29916;SDS011;16786;49.466;11.068;2022-12-13T04:11:26;36.42;;;16.63;;
29916;SDS011;16786;49.466;11.068;2022-12-13T04:14:12;32.67;;;15.65;;
29916;SDS011;16786;49.466;11.068;2022-12-13T04:16:49;39.47;;;15.82;;
29916;SDS011;16786;49.466;11.068;2022-12-13T04:19:18;34.22;;;17.33;;
29916;SDS011;16786;49.466;11.068;2022-12-13T04:21:50;32.33;;;16.80;;
29916;SDS011;16786;49.466;11.068;2022-12-13T04:24:17;37.05;;;15.77;;
29916;SDS011;16786;49.466;11.068;2022-12-13T04:26:46;35.35;;;16.33;;
29916;SDS011;16786;49.466;11.068;2022-12-13T04:29:13;36.20;;;16.73;;
29916;SDS011;16786;49.466;11.068;2022-12-13T04:31:40;30.23;;;15.23;;
29916;SDS011;16786;49.466;11.068;2022-12-13T04:34:07;31.17;;;15.45;;
29916;SDS011;16786;49.466;11.068;2022-12-13T04:36:35;32.13;;;16.10;;
29916;SDS011;16786;49.466;11.068;2022-12-13T04:39:03;39.30;;;16.40;;
29916;SDS011;16786;49.466;11.068;2022-12-13T04:41:48;35.22;;;16.13;;
29916;SDS011;16786;49.466;11.068;2022-12-13T04:44:18;32.60;;;15.18;;
29916;SDS011;16786;49.466;11.068;2022-12-13T04:46:54;34.40;;;16.20;;
29916;SDS011;16786;49.466;11.068;2022-12-13T04:49:27;34.42;;;16.00;;
29916;SDS011;16786;49.466;11.068;2022-12-13T04:51:55;36.65;;;16.10;;
29916;SDS011;16786;49.466;11.068;2022-12-13T04:54:27;33.25;;;16.48;;
29916;SDS011;16786;49.466;11.068;2022-12-13T04:57:05;38.35;;;16.40;;
29916;SDS011;16786;49.466;11.068;2022-12-13T04:59:35;37.67;;;16.23;;
29916;SDS011;16786;49.466;11.068;2022-12-13T05:02:04;34.92;;;17.08;;
29916;SDS011;16786;49.466;11.068;2022-12-13T05:04:32;38.75;;;16.75;;
29916;SDS011;16786;49.466;11.068;2022-12-13T05:07:01;38.42;;;17.10;;
29916;SDS011;16786;49.466;11.068;2022-12-13T05:09:28;33.33;;;15.50;;
29916;SDS011;16786;49.466;11.068;2022-12-13T05:11:56;36.78;;;16.50;;
29916;SDS011;16786;49.466;11.068;2022-12-13T05:14:28;37.08;;;17.80;;
29916;SDS011;16786;49.466;11.068;2022-12-13T05:16:57;37.42;;;16.83;;
29916;SDS011;16786;49.466;11.068;2022-12-13T05:19:26;42.08;;;19.35;;
29916;SDS011;16786;49.466;11.068;2022-12-13T05:21:57;43.38;;;20.27;;
29916;SDS011;16786;49.466;11.068;2022-12-13T05:24:28;43.53;;;19.63;;
29916;SDS011;16786;49.466;11.068;2022-12-13T05:26:57;34.90;;;18.25;;
29916;SDS011;16786;49.466;11.068;2022-12-13T05:29:24;36.78;;;17.65;;
29916;SDS011;16786;49.466;11.068;2022-12-13T05:31:53;40.50;;;19.60;;
29916;SDS011;16786;49.466;11.068;2022-12-13T05:34:21;34.95;;;17.02;;
29916;SDS011;16786;49.466;11.068;2022-12-13T05:36:48;35.75;;;16.77;;
29916;SDS011;16786;49.466;11.068;2022-12-13T05:39:15;39.75;;;18.63;;
29916;SDS011;16786;49.466;11.068;2022-12-13T05:41:55;36.42;;;17.70;;
29916;SDS011;16786;49.466;11.068;2022-12-13T05:44:28;39.10;;;17.90;;
29916;SDS011;16786;49.466;11.068;2022-12-13T05:46:57;30.73;;;15.57;;
29916;SDS011;16786;49.466;11.068;2022-12-13T05:49:29;36.05;;;16.92;;
29916;SDS011;16786;49.466;11.068;2022-12-13T05:51:56;37.97;;;17.52;;
29916;SDS011;16786;49.466;11.068;2022-12-13T05:54:24;37.17;;;17.40;;
29916;SDS011;16786;49.466;11.068;2022-12-13T05:56:51;32.90;;;16.67;;
29916;SDS011;16786;49.466;11.068;2022-12-13T05:59:18;39.00;;;18.55;;
29916;SDS011;16786;49.466;11.068;2022-12-13T06:01:45;35.70;;;18.00;;
29916;SDS011;16786;49.466;11.068;2022-12-13T06:04:13;41.88;;;18.65;;
29916;SDS011;16786;49.466;11.068;2022-12-13T06:06:49;39.88;;;18.55;;
29916;SDS011;16786;49.466;11.068;2022-12-13T06:09:17;38.08;;;17.23;;
29916;SDS011;16786;49.466;11.068;2022-12-13T06:11:45;35.42;;;16.17;;
29916;SDS011;16786;49.466;11.068;2022-12-13T06:14:14;34.95;;;17.20;;
29916;SDS011;16786;49.466;11.068;2022-12-13T06:16:47;42.28;;;17.88;;
29916;SDS011;16786;49.466;11.068;2022-12-13T06:19:14;37.60;;;17.23;;
29916;SDS011;16786;49.466;11.068;2022-12-13T06:21:42;37.33;;;17.70;;
29916;SDS011;16786;49.466;11.068;2022-12-13T06:24:16;42.83;;;19.90;;
29916;SDS011;16786;49.466;11.068;2022-12-13T06:26:45;47.60;;;20.77;;
29916;SDS011;16786;49.466;11.068;2022-12-13T06:29:13;43.55;;;20.40;;
29916;SDS011;16786;49.466;11.068;2022-12-13T06:31:51;37.65;;;18.20;;
29916;SDS011;16786;49.466;11.068;2022-12-13T06:34:28;37.35;;;18.50;;
29916;SDS011;16786;49.466;11.068;2022-12-13T06:36:57;36.13;;;17.77;;
29916;SDS011;16786;49.466;11.068;2022-12-13T06:39:26;36.97;;;17.48;;
29916;SDS011;16786;49.466;11.068;2022-12-13T06:41:59;40.03;;;19.63;;
29916;SDS011;16786;49.466;11.068;2022-12-13T06:44:27;35.22;;;18.05;;
29916;SDS011;16786;49.466;11.068;2022-12-13T06:46:55;38.20;;;18.98;;
29916;SDS011;16786;49.466;11.068;2022-12-13T06:49:36;43.40;;;18.85;;
29916;SDS011;16786;49.466;11.068;2022-12-13T06:52:04;40.13;;;18.70;;
29916;SDS011;16786;49.466;11.068;2022-12-13T06:54:31;41.50;;;18.40;;
29916;SDS011;16786;49.466;11.068;2022-12-13T06:56:59;34.20;;;17.40;;
29916;SDS011;16786;49.466;11.068;2022-12-13T06:59:26;37.75;;;19.23;;
29916;SDS011;16786;49.466;11.068;2022-12-13T07:01:53;38.35;;;19.00;;
29916;SDS011;16786;49.466;11.068;2022-12-13T07:04:29;35.63;;;17.90;;
29916;SDS011;16786;49.466;11.068;2022-12-13T07:06:57;40.55;;;18.75;;
29916;SDS011;16786;49.466;11.068;2022-12-13T07:09:30;35.30;;;17.33;;
29916;SDS011;16786;49.466;11.068;2022-12-13T07:11:58;39.53;;;17.98;;
29916;SDS011;16786;49.466;11.068;2022-12-13T07:14:26;39.97;;;17.65;;
29916;SDS011;16786;49.466;11.068;2022-12-13T07:16:54;35.80;;;17.33;;
29916;SDS011;16786;49.466;11.068;2022-12-13T07:19:29;35.60;;;17.10;;
29916;SDS011;16786;49.466;11.068;2022-12-13T07:22:02;40.85;;;18.63;;
29916;SDS011;16786;49.466;11.068;2022-12-13T07:24:32;35.60;;;17.60;;
29916;SDS011;16786;49.466;11.068;2022-12-13T07:27:01;37.72;;;18.25;;
29916;SDS011;16786;49.466;11.068;2022-12-13T07:29:29;36.75;;;18.38;;
29916;SDS011;16786;49.466;11.068;2022-12-13T07:31:57;37.45;;;17.38;;
29916;SDS011;16786;49.466;11.068;2022-12-13T07:34:27;33.65;;;16.88;;
29916;SDS011;16786;49.466;11.068;2022-12-13T07:36:56;38.97;;;17.05;;
29916;SDS011;16786;49.466;11.068;2022-12-13T07:39:24;34.60;;;17.65;;
29916;SDS011;16786;49.466;11.068;2022-12-13T07:41:55;35.60;;;17.40;;
29916;SDS011;16786;49.466;11.068;2022-12-13T07:44:23;37.80;;;18.23;;
29916;SDS011;16786;49.466;11.068;2022-12-13T07:46:50;37.85;;;18.17;;
29916;SDS011;16786;49.466;11.068;2022-12-13T07:49:18;34.50;;;17.30;;
29916;SDS011;16786;49.466;11.068;2022-12-13T07:51:46;35.80;;;17.70;;
29916;SDS011;16786;49.466;11.068;2022-12-13T07:54:13;36.38;;;17.40;;
29916;SDS011;16786;49.466;11.068;2022-12-13T07:56:41;38.90;;;17.33;;
29916;SDS011;16786;49.466;11.068;2022-12-13T07:59:08;36.35;;;17.67;;
29916;SDS011;16786;49.466;11.068;2022-12-13T08:01:36;34.90;;;18.55;;
29916;SDS011;16786;49.466;11.068;2022-12-13T08:04:04;42.75;;;20.08;;
29916;SDS011;16786;49.466;11.068;2022-12-13T08:06:35;42.22;;;19.30;;
29916;SDS011;16786;49.466;11.068;2022-12-13T08:09:04;40.35;;;18.25;;
29916;SDS011;16786;49.466;11.068;2022-12-13T08:11:31;46.50;;;18.83;;
29916;SDS011;16786;49.466;11.068;2022-12-13T08:13:59;37.47;;;19.30;;
29916;SDS011;16786;49.466;11.068;2022-12-13T08:16:27;41.97;;;20.15;;
29916;SDS011;16786;49.466;11.068;2022-12-13T08:18:56;40.33;;;19.08;;
29916;SDS011;16786;49.466;11.068;2022-12-13T08:21:36;37.45;;;18.15;;
29916;SDS011;16786;49.466;11.068;2022-12-13T08:24:23;41.25;;;18.70;;
29916;SDS011;16786;49.466;11.068;2022-12-13T08:26:56;30.42;;;17.13;;
29916;SDS011;16786;49.466;11.068;2022-12-13T08:29:27;39.72;;;17.95;;
29916;SDS011;16786;49.466;11.068;2022-12-13T08:32:04;35.13;;;17.80;;
29916;SDS011;16786;49.466;11.068;2022-12-13T08:34:34;31.95;;;17.13;;
29916;SDS011;16786;49.466;11.068;2022-12-13T08:37:02;36.20;;;18.23;;
29916;SDS011;16786;49.466;11.068;2022-12-13T08:39:31;33.53;;;16.83;;
29916;SDS011;16786;49.466;11.068;2022-12-13T08:42:11;30.58;;;15.70;;
29916;SDS011;16786;49.466;11.068;2022-12-13T08:44:44;35.78;;;17.42;;
29916;SDS011;16786;49.466;11.068;2022-12-13T08:47:16;39.78;;;19.40;;
29916;SDS011;16786;49.466;11.068;2022-12-13T08:49:54;31.23;;;16.08;;
29916;SDS011;16786;49.466;11.068;2022-12-13T08:52:31;30.77;;;16.05;;
29916;SDS011;16786;49.466;11.068;2022-12-13T08:55:12;30.90;;;15.10;;
29916;SDS011;16786;49.466;11.068;2022-12-13T08:57:41;26.83;;;15.50;;
29916;SDS011;16786;49.466;11.068;2022-12-13T09:00:12;32.25;;;16.95;;
29916;SDS011;16786;49.466;11.068;2022-12-13T09:02:41;35.45;;;16.83;;
29916;SDS011;16786;49.466;11.068;2022-12-13T09:05:09;29.50;;;16.83;;
29916;SDS011;16786;49.466;11.068;2022-12-13T09:07:58;35.88;;;18.15;;
29916;SDS011;16786;49.466;11.068;2022-12-13T09:10:28;42.38;;;21.45;;
29916;SDS011;16786;49.466;11.068;2022-12-13T09:13:04;35.30;;;18.98;;
29916;SDS011;16786;49.466;11.068;2022-12-13T09:15:39;35.65;;;17.90;;
29916;SDS011;16786;49.466;11.068;2022-12-13T09:18:11;32.70;;;17.55;;
29916;SDS011;16786;49.466;11.068;2022-12-13T09:20:41;31.75;;;16.45;;
29916;SDS011;16786;49.466;11.068;2022-12-13T09:23:09;33.33;;;16.67;;
29916;SDS011;16786;49.466;11.068;2022-12-13T09:25:53;31.92;;;16.08;;
29916;SDS011;16786;49.466;11.068;2022-12-13T09:28:32;28.00;;;15.38;;
29916;SDS011;16786;49.466;11.068;2022-12-13T09:31:04;26.42;;;14.63;;
29916;SDS011;16786;49.466;11.068;2022-12-13T09:33:43;30.02;;;15.80;;
29916;SDS011;16786;49.466;11.068;2022-12-13T09:36:14;31.17;;;15.77;;
29916;SDS011;16786;49.466;11.068;2022-12-13T09:38:43;28.83;;;15.90;;
29916;SDS011;16786;49.466;11.068;2022-12-13T09:44:15;28.88;;;15.38;;
29916;SDS011;16786;49.466;11.068;2022-12-13T09:47:11;30.50;;;16.17;;
29916;SDS011;16786;49.466;11.068;2022-12-13T09:49:51;36.20;;;19.30;;
29916;SDS011;16786;49.466;11.068;2022-12-13T09:52:20;41.05;;;20.00;;
29916;SDS011;16786;49.466;11.068;2022-12-13T09:54:54;25.98;;;13.40;;
29916;SDS011;16786;49.466;11.068;2022-12-13T09:57:28;32.53;;;17.30;;
29916;SDS011;16786;49.466;11.068;2022-12-13T10:00:01;35.55;;;16.95;;
29916;SDS011;16786;49.466;11.068;2022-12-13T10:02:46;33.17;;;16.38;;
29916;SDS011;16786;49.466;11.068;2022-12-13T10:10:34;31.70;;;15.80;;
29916;SDS011;16786;49.466;11.068;2022-12-13T10:15:56;31.13;;;15.77;;
29916;SDS011;16786;49.466;11.068;2022-12-13T10:18:35;39.45;;;19.95;;
29916;SDS011;16786;49.466;11.068;2022-12-13T10:21:09;36.92;;;19.30;;
29916;SDS011;16786;49.466;11.068;2022-12-13T10:23:41;34.83;;;17.75;;
29916;SDS011;16786;49.466;11.068;2022-12-13T10:26:28;32.58;;;15.43;;
29916;SDS011;16786;49.466;11.068;2022-12-13T10:29:03;27.33;;;15.68;;
29916;SDS011;16786;49.466;11.068;2022-12-13T10:31:39;30.33;;;15.55;;
29916;SDS011;16786;49.466;11.068;2022-12-13T10:34:25;25.63;;;14.43;;
29916;SDS011;16786;49.466;11.068;2022-12-13T10:36:55;28.02;;;14.45;;
29916;SDS011;16786;49.466;11.068;2022-12-13T10:39:36;25.23;;;13.20;;
29916;SDS011;16786;49.466;11.068;2022-12-13T10:44:55;23.02;;;14.00;;
29916;SDS011;16786;49.466;11.068;2022-12-13T10:47:53;23.88;;;14.10;;
29916;SDS011;16786;49.466;11.068;2022-12-13T10:50:29;29.90;;;15.02;;
29916;SDS011;16786;49.466;11.068;2022-12-13T10:52:58;23.98;;;14.82;;
29916;SDS011;16786;49.466;11.068;2022-12-13T10:57:55;23.27;;;14.07;;
29916;SDS011;16786;49.466;11.068;2022-12-13T11:00:30;23.58;;;14.25;;
29916;SDS011;16786;49.466;11.068;2022-12-13T11:03:05;22.23;;;14.23;;
29916;SDS011;16786;49.466;11.068;2022-12-13T11:05:35;19.50;;;13.50;;
29916;SDS011;16786;49.466;11.068;2022-12-13T11:08:11;22.55;;;13.82;;
29916;SDS011;16786;49.466;11.068;2022-12-13T11:10:40;23.60;;;14.15;;
29916;SDS011;16786;49.466;11.068;2022-12-13T11:13:18;23.65;;;14.95;;
29916;SDS011;16786;49.466;11.068;2022-12-13T11:15:53;23.98;;;14.30;;
29916;SDS011;16786;49.466;11.068;2022-12-13T11:18:24;19.48;;;13.43;;
29916;SDS011;16786;49.466;11.068;2022-12-13T11:20:55;21.00;;;14.88;;
29916;SDS011;16786;49.466;11.068;2022-12-13T11:23:33;18.48;;;14.13;;
29916;SDS011;16786;49.466;11.068;2022-12-13T11:26:07;22.40;;;14.95;;
29916;SDS011;16786;49.466;11.068;2022-12-13T11:42:46;18.02;;;12.73;;
29916;SDS011;16786;49.466;11.068;2022-12-13T11:45:25;17.58;;;13.20;;
29916;SDS011;16786;49.466;11.068;2022-12-13T11:48:04;18.98;;;13.63;;
29916;SDS011;16786;49.466;11.068;2022-12-13T11:50:40;19.55;;;13.40;;
29916;SDS011;16786;49.466;11.068;2022-12-13T11:55:41;17.80;;;13.82;;
29916;SDS011;16786;49.466;11.068;2022-12-13T11:58:19;15.70;;;12.30;;
29916;SDS011;16786;49.466;11.068;2022-12-13T12:01:16;15.85;;;12.05;;
29916;SDS011;16786;49.466;11.068;2022-12-13T12:06:24;16.33;;;12.60;;
29916;SDS011;16786;49.466;11.068;2022-12-13T12:08:58;15.02;;;12.25;;
29916;SDS011;16786;49.466;11.068;2022-12-13T12:14:09;14.38;;;11.02;;
29916;SDS011;16786;49.466;11.068;2022-12-13T12:17:04;15.07;;;11.88;;
29916;SDS011;16786;49.466;11.068;2022-12-13T12:19:36;15.15;;;12.05;;
29916;SDS011;16786;49.466;11.068;2022-12-13T12:30:44;16.58;;;12.95;;
29916;SDS011;16786;49.466;11.068;2022-12-13T12:36:36;15.43;;;12.05;;
29916;SDS011;16786;49.466;11.068;2022-12-13T12:42:20;13.13;;;11.15;;
29916;SDS011;16786;49.466;11.068;2022-12-13T12:45:22;15.05;;;11.43;;
29916;SDS011;16786;49.466;11.068;2022-12-13T12:48:40;15.10;;;11.20;;
29916;SDS011;16786;49.466;11.068;2022-12-13T12:57:24;16.38;;;10.70;;
29916;SDS011;16786;49.466;11.068;2022-12-13T13:00:12;15.35;;;11.02;;
29916;SDS011;16786;49.466;11.068;2022-12-13T13:05:54;15.88;;;11.00;;
29916;SDS011;16786;49.466;11.068;2022-12-13T13:11:24;13.27;;;10.63;;
29916;SDS011;16786;49.466;11.068;2022-12-13T13:16:29;17.60;;;12.27;;
29916;SDS011;16786;49.466;11.068;2022-12-13T13:19:03;12.65;;;10.55;;
29916;SDS011;16786;49.466;11.068;2022-12-13T13:21:41;13.13;;;10.48;;
29916;SDS011;16786;49.466;11.068;2022-12-13T13:27:44;14.50;;;10.85;;
29916;SDS011;16786;49.466;11.068;2022-12-13T13:30:23;16.08;;;10.70;;
29916;SDS011;16786;49.466;11.068;2022-12-13T13:32:52;13.35;;;11.35;;
29916;SDS011;16786;49.466;11.068;2022-12-13T13:38:00;13.77;;;10.45;;
29916;SDS011;16786;49.466;11.068;2022-12-13T13:45:51;12.73;;;10.25;;
29916;SDS011;16786;49.466;11.068;2022-12-13T13:55:07;19.90;;;13.85;;
29916;SDS011;16786;49.466;11.068;2022-12-13T14:04:20;16.17;;;9.85;;
29916;SDS011;16786;49.466;11.068;2022-12-13T14:10:22;16.45;;;11.02;;
29916;SDS011;16786;49.466;11.068;2022-12-13T14:19:10;24.67;;;10.15;;
29916;SDS011;16786;49.466;11.068;2022-12-13T14:22:11;15.07;;;10.95;;
29916;SDS011;16786;49.466;11.068;2022-12-13T14:30:09;16.02;;;10.57;;
29916;SDS011;16786;49.466;11.068;2022-12-13T14:32:54;15.18;;;11.10;;
29916;SDS011;16786;49.466;11.068;2022-12-13T14:35:23;16.35;;;10.63;;
29916;SDS011;16786;49.466;11.068;2022-12-13T14:37:56;18.02;;;11.18;;
29916;SDS011;16786;49.466;11.068;2022-12-13T14:40:30;14.50;;;11.05;;
29916;SDS011;16786;49.466;11.068;2022-12-13T14:42:59;17.13;;;10.45;;
29916;SDS011;16786;49.466;11.068;2022-12-13T14:45:32;16.50;;;11.15;;
29916;SDS011;16786;49.466;11.068;2022-12-13T14:48:03;14.57;;;10.63;;
29916;SDS011;16786;49.466;11.068;2022-12-13T14:50:40;18.60;;;10.98;;
29916;SDS011;16786;49.466;11.068;2022-12-13T14:58:55;16.95;;;11.00;;
29916;SDS011;16786;49.466;11.068;2022-12-13T15:01:34;25.35;;;12.10;;
29916;SDS011;16786;49.466;11.068;2022-12-13T15:06:56;15.45;;;10.15;;
29916;SDS011;16786;49.466;11.068;2022-12-13T15:09:40;16.02;;;10.65;;
29916;SDS011;16786;49.466;11.068;2022-12-13T15:12:13;16.48;;;10.57;;
29916;SDS011;16786;49.466;11.068;2022-12-13T15:14:58;16.90;;;10.45;;
29916;SDS011;16786;49.466;11.068;2022-12-13T15:17:30;18.17;;;11.05;;
29916;SDS011;16786;49.466;11.068;2022-12-13T15:20:31;15.10;;;9.50;;
29916;SDS011;16786;49.466;11.068;2022-12-13T15:25:55;26.83;;;14.80;;
29916;SDS011;16786;49.466;11.068;2022-12-13T15:28:27;25.00;;;13.48;;
29916;SDS011;16786;49.466;11.068;2022-12-13T15:30:59;23.90;;;11.85;;
29916;SDS011;16786;49.466;11.068;2022-12-13T15:33:28;21.42;;;11.85;;
29916;SDS011;16786;49.466;11.068;2022-12-13T15:36:15;18.98;;;10.73;;
29916;SDS011;16786;49.466;11.068;2022-12-13T15:41:32;19.83;;;11.23;;
29916;SDS011;16786;49.466;11.068;2022-12-13T15:44:06;21.27;;;11.27;;
29916;SDS011;16786;49.466;11.068;2022-12-13T15:46:49;18.73;;;10.55;;
29916;SDS011;16786;49.466;11.068;2022-12-13T15:52:03;19.38;;;10.77;;
29916;SDS011;16786;49.466;11.068;2022-12-13T15:54:33;18.10;;;10.23;;
29916;SDS011;16786;49.466;11.068;2022-12-13T15:59:30;17.58;;;10.65;;
29916;SDS011;16786;49.466;11.068;2022-12-13T16:02:00;24.30;;;12.10;;
29916;SDS011;16786;49.466;11.068;2022-12-13T16:04:29;19.73;;;12.00;;
29916;SDS011;16786;49.466;11.068;2022-12-13T16:07:01;19.60;;;11.85;;
29916;SDS011;16786;49.466;11.068;2022-12-13T16:09:29;17.60;;;11.15;;
29916;SDS011;16786;49.466;11.068;2022-12-13T16:12:03;22.48;;;11.93;;
29916;SDS011;16786;49.466;11.068;2022-12-13T16:14:35;21.52;;;11.88;;
29916;SDS011;16786;49.466;11.068;2022-12-13T16:17:20;26.65;;;14.52;;
29916;SDS011;16786;49.466;11.068;2022-12-13T16:19:51;25.65;;;13.88;;
29916;SDS011;16786;49.466;11.068;2022-12-13T16:22:20;21.98;;;11.90;;
29916;SDS011;16786;49.466;11.068;2022-12-13T16:24:50;21.75;;;11.77;;
29916;SDS011;16786;49.466;11.068;2022-12-13T16:27:18;22.77;;;12.38;;
29916;SDS011;16786;49.466;11.068;2022-12-13T16:29:45;28.35;;;12.63;;
29916;SDS011;16786;49.466;11.068;2022-12-13T16:32:13;23.70;;;13.07;;
29916;SDS011;16786;49.466;11.068;2022-12-13T16:34:40;22.42;;;12.15;;
29916;SDS011;16786;49.466;11.068;2022-12-13T16:37:08;26.42;;;13.02;;
29916;SDS011;16786;49.466;11.068;2022-12-13T16:39:53;21.08;;;12.45;;
29916;SDS011;16786;49.466;11.068;2022-12-13T16:42:22;20.30;;;12.50;;
29916;SDS011;16786;49.466;11.068;2022-12-13T16:44:53;19.65;;;12.52;;
29916;SDS011;16786;49.466;11.068;2022-12-13T16:47:41;23.98;;;13.32;;
29916;SDS011;16786;49.466;11.068;2022-12-13T16:50:15;23.73;;;14.07;;
29916;SDS011;16786;49.466;11.068;2022-12-13T16:52:45;21.20;;;13.02;;
29916;SDS011;16786;49.466;11.068;2022-12-13T16:55:14;21.50;;;13.50;;
29916;SDS011;16786;49.466;11.068;2022-12-13T16:57:52;23.85;;;13.27;;
29916;SDS011;16786;49.466;11.068;2022-12-13T17:00:21;24.65;;;13.48;;
29916;SDS011;16786;49.466;11.068;2022-12-13T17:02:49;24.95;;;14.10;;
29916;SDS011;16786;49.466;11.068;2022-12-13T17:05:16;29.23;;;16.13;;
29916;SDS011;16786;49.466;11.068;2022-12-13T17:07:44;26.00;;;14.88;;
29916;SDS011;16786;49.466;11.068;2022-12-13T17:10:11;23.60;;;14.27;;
29916;SDS011;16786;49.466;11.068;2022-12-13T17:12:39;25.52;;;14.40;;
29916;SDS011;16786;49.466;11.068;2022-12-13T17:15:07;26.77;;;13.40;;